Airfield :
LOGIN :

Register | Disclaimer

   EN    FR    IT 

 










Legend :    VFR   Marginal VFR   IFR   Intensive IFR   Very Intensive IFR
Visi :
Ceiling :
>= 8 km
>= 3000ft
5 to 8 km
1000 to 3000 ft
1500m to 5 km
500 to 1000 ft
800 to 1500m
200 to 500 ft
< 800m
< 200 ft
Symbols :   Thunderstorms  Fog  Heavy snow  Heavy precipitations  Wind > 20 kt
SIGMETs :     Misc.  Thunderstorms  Icing  Turbulence  Mountain Waves  Volcanic Ashes







- Airport Elevation : 156 ft
- IATA code : LCC


LIBN - Lecce Galatine (military)

CURRENT METAR :
  • 131455Z 02007KT 9000 FEW010 19/14 Q1026 RMK FEW VIS MIN 9000 WIND THR14 01007KT WIND THR32 01007KT BLU

EXPIRED METARs :
  • 131355Z 02007KT 9999 FEW030 19/15 Q1025 RMK FEW VIS MIN 9999 WIND THR14 03006KT WIND THR32 02007KT BLU
  • 131255Z 02008KT 9999 FEW030 20/15 Q1026 RMK FEW VIS MIN 9999 WIND THR14 02007KT WIND THR32 03007KT BLU

TAF TAF LIBN
Valid from the 13 at 15:00 until the 14 at 00:00 UTC


131400Z 1315/1324 01007KT 9999 FEW025
BECMG 1316/1317 VRB03KT 5000 BR FEW008
BECMG 1318/1320 0800 FG SCT006
No reported NOTAMs for that airfield.



MET'MAP, your aeronautical weather chart ! - Copyright ORBIFLY December 2007 - Disclaimer

ORBIFLY MET'MAP TEAM :

Programming & Development : Alexandra Zaïnal
Concept & Development : Baudouin d'Aumeries
Co-Development & Prog : Marc-Olivier Méhu
Technical & hardware support : Manuel Goepfert

Contact : metmap@orbifly.com




SOURCES & CREDITS :

   NOAA